LIMC/MXP METAR and TAF weather

Enter ICAO airport designator
Station Type Date Time Source
LIMC METAR 2020/04/05 06:50 UTC NOAA

LIMC 050650Z 06004KT 030V090 9999 SCT070 13/02 Q1025 NOSIG


Station Type Date Time Source
LIMC Decoded METAR 2020/04/05 06:50 UTC NOAA

Milano / Malpensa, Italy (LIMC) 45-37N 008-44E 211M
Apr 05, 2020 - 02:50 AM EDT / 2020.04.05 0650 UTC
Wind: from the ENE (060 degrees) at 5 MPH (4 KT) (direction variable):0
Visibility: greater than 7 mile(s):0
Sky conditions: partly cloudy
Temperature: 55 F (13 C)
Dew Point: 35 F (2 C)
Relative Humidity: 47%
Pressure (altimeter): 30.27 in. Hg (1025 hPa)
ob: LIMC 050650Z 06004KT 030V090 9999 SCT070 13/02 Q1025 NOSIG
cycle: 7

Station Type Date Time Source
LIMC TAF 2020/04/05 06:21 UTC NOAA

TAF LIMC 050500Z 0506/0612 VRB05KT CAVOK

Example: see airport list